Time;durP1;ratioP1;P1;durP2;ratioP2;P2;SDS_P1;SDS_P2;PMS_P1;PMS_P2;Temp;Humidity;BMP_temperature;BMP_pressure;BME280_temperature;BME280_humidity;BME280_pressure;Samples;Min_cycle;Max_cycle;Signal;HPM_P1;HPM_P2
2021/05/10 00:02:16;;;;;;;3.43;1.50;;;;;;;;;;5030596;28;20454;-65
2021/05/10 00:04:42;;;;;;;3.80;1.53;;;;;;;;;;5032839;28;20433;-64
2021/05/10 00:07:09;;;;;;;3.83;1.87;;;;;;;;;;5020675;28;20451;-65
2021/05/10 00:09:35;;;;;;;2.77;1.37;;;;;;;;;;5013716;28;20403;-64
2021/05/10 00:12:01;;;;;;;4.20;1.60;;;;;;;;;;5023558;28;20438;-65
2021/05/10 00:14:38;;;;;;;2.10;1.20;;;;;;;;;;5033169;28;20391;-65
2021/05/10 00:17:04;;;;;;;3.37;1.27;;;;;;;;;;5032657;28;20418;-65
2021/05/10 00:19:30;;;;;;;3.63;1.33;;;;;;;;;;5032034;28;20422;-65
2021/05/10 00:21:56;;;;;;;2.20;1.20;;;;;;;;;;5022490;28;20451;-66
2021/05/10 00:24:22;;;;;;;5.57;2.23;;;;;;;;;;5012779;28;20424;-66
2021/05/10 00:26:48;;;;;;;4.63;1.63;;;;;;;;;;5019648;28;20426;-65
2021/05/10 00:29:18;;;;;;;4.73;1.47;;;;;;;;;;5033270;28;20412;-65
2021/05/10 00:31:44;;;;;;;2.27;1.53;;;;;;;;;;5024808;28;20470;-66
2021/05/10 00:34:10;;;;;;;2.73;1.40;;;;;;;;;;5013299;28;20912;-65
2021/05/10 00:36:36;;;;;;;2.90;1.50;;;;;;;;;;5019780;28;20445;-66
2021/05/10 00:39:02;;;;;;;3.20;1.60;;;;;;;;;;5033066;28;20418;-66
2021/05/10 00:41:28;;;;;;;3.00;1.60;;;;;;;;;;5027280;28;20443;-66
2021/05/10 00:43:54;;;;;;;3.90;1.40;;;;;;;;;;5013246;28;20537;-65
2021/05/10 00:46:20;;;;;;;3.30;1.30;;;;;;;;;;5016096;28;20861;-65
2021/05/10 00:48:46;;;;;;;2.10;1.50;;;;;;;;;;5033259;28;20510;-65
2021/05/10 00:51:12;;;;;;;2.37;1.37;;;;;;;;;;5031744;28;20443;-65
2021/05/10 00:53:38;;;;;;;4.10;1.53;;;;;;;;;;5030360;28;20470;-65
2021/05/10 00:56:05;;;;;;;3.17;1.30;;;;;;;;;;5031565;28;20421;-66
2021/05/10 00:58:32;;;;;;;4.33;1.53;;;;;;;;;;5032570;28;20407;-65
2021/05/10 01:00:58;;;;;;;3.77;1.83;;;;;;;;;;5031757;28;20803;-65
2021/05/10 01:03:25;;;;;;;2.57;1.50;;;;;;;;;;5013308;28;20493;-65
2021/05/10 01:05:51;;;;;;;2.87;1.30;;;;;;;;;;5013001;28;20403;-65
2021/05/10 01:08:17;;;;;;;3.40;1.30;;;;;;;;;;5013525;28;20427;-65
2021/05/10 01:10:45;;;;;;;2.50;1.70;;;;;;;;;;5012784;28;20482;-65
2021/05/10 01:13:11;;;;;;;1.90;1.40;;;;;;;;;;5013360;28;20530;-65
2021/05/10 01:15:37;;;;;;;2.70;1.50;;;;;;;;;;5014590;28;20790;-66
2021/05/10 01:18:03;;;;;;;3.20;1.50;;;;;;;;;;5017035;28;20481;-65
2021/05/10 01:20:29;;;;;;;2.00;1.20;;;;;;;;;;5021146;28;20528;-65
2021/05/10 01:22:57;;;;;;;2.43;1.50;;;;;;;;;;5035273;28;20473;-66
2021/05/10 01:25:30;;;;;;;2.03;1.20;;;;;;;;;;5036249;28;20430;-65
2021/05/10 01:27:57;;;;;;;4.63;1.60;;;;;;;;;;5035184;28;20541;-66
2021/05/10 01:30:24;;;;;;;2.60;1.47;;;;;;;;;;5035994;28;20457;-65
2021/05/10 01:32:54;;;;;;;2.00;1.23;;;;;;;;;;5035477;28;20790;-65
2021/05/10 01:35:26;;;;;;;1.70;1.07;;;;;;;;;;5036269;28;20403;-65
2021/05/10 01:37:52;;;;;;;3.87;1.67;;;;;;;;;;5034288;28;20426;-65
2021/05/10 01:40:18;;;;;;;4.03;1.20;;;;;;;;;;5035875;28;20423;-65
2021/05/10 01:42:44;;;;;;;2.87;1.40;;;;;;;;;;5035061;28;20462;-65
2021/05/10 01:45:11;;;;;;;3.00;1.40;;;;;;;;;;5035700;28;20414;-65
2021/05/10 01:47:37;;;;;;;2.70;1.30;;;;;;;;;;5034394;28;20454;-65
2021/05/10 01:50:18;;;;;;;1.80;1.13;;;;;;;;;;5035571;28;20482;-65
2021/05/10 01:52:44;;;;;;;2.53;1.43;;;;;;;;;;5033022;28;20434;-65
2021/05/10 01:55:10;;;;;;;3.23;1.77;;;;;;;;;;5035642;28;20403;-65
2021/05/10 01:57:37;;;;;;;2.40;1.40;;;;;;;;;;5034328;28;20398;-65
2021/05/10 02:00:06;;;;;;;2.43;1.57;;;;;;;;;;5035339;28;20752;-65
2021/05/10 02:02:32;;;;;;;1.83;1.17;;;;;;;;;;5031802;28;20480;-65
2021/05/10 02:05:18;;;;;;;2.23;1.30;;;;;;;;;;5035410;28;20395;-65
2021/05/10 02:07:44;;;;;;;2.17;1.17;;;;;;;;;;5032598;28;20463;-65
2021/05/10 02:10:13;;;;;;;2.73;1.33;;;;;;;;;;5015305;28;20428;-65
2021/05/10 02:12:39;;;;;;;1.80;0.97;;;;;;;;;;5015958;28;20416;-65
2021/05/10 02:15:06;;;;;;;3.30;1.27;;;;;;;;;;5035391;28;20409;-65
2021/05/10 02:17:32;;;;;;;1.80;1.17;;;;;;;;;;5033271;28;20419;-65
2021/05/10 02:19:58;;;;;;;2.00;1.30;;;;;;;;;;5015311;28;20815;-65
2021/05/10 02:22:24;;;;;;;1.97;1.30;;;;;;;;;;5015163;28;20459;-65
2021/05/10 02:24:50;;;;;;;2.47;1.40;;;;;;;;;;5033187;28;20526;-64
2021/05/10 02:27:16;;;;;;;2.70;1.47;;;;;;;;;;5034986;28;20395;-65
2021/05/10 02:29:42;;;;;;;3.07;1.30;;;;;;;;;;5034209;28;20430;-65
2021/05/10 02:32:09;;;;;;;3.10;1.40;;;;;;;;;;5034728;28;20860;-64
2021/05/10 02:34:38;;;;;;;2.77;1.40;;;;;;;;;;5033851;28;20510;-64
2021/05/10 02:37:04;;;;;;;2.13;1.30;;;;;;;;;;5035852;28;20752;-64
2021/05/10 02:39:30;;;;;;;6.03;1.60;;;;;;;;;;5030865;28;20442;-65
2021/05/10 02:41:56;;;;;;;2.97;1.70;;;;;;;;;;5035060;28;20464;-64
2021/05/10 02:44:22;;;;;;;2.00;1.47;;;;;;;;;;5020492;28;20491;-65
2021/05/10 02:46:48;;;;;;;2.60;1.30;;;;;;;;;;5013613;28;20402;-65
2021/05/10 02:49:14;;;;;;;2.00;1.30;;;;;;;;;;5026974;28;20776;-65
2021/05/10 02:51:40;;;;;;;3.80;1.50;;;;;;;;;;5034769;28;20492;-65
2021/05/10 02:54:06;;;;;;;4.90;2.27;;;;;;;;;;5022981;28;20481;-65
2021/05/10 02:56:32;;;;;;;3.33;1.20;;;;;;;;;;5014666;28;20404;-65
2021/05/10 02:58:59;;;;;;;1.93;1.30;;;;;;;;;;5022639;28;20434;-64
2021/05/10 03:01:25;;;;;;;5.60;1.93;;;;;;;;;;5034373;28;20450;-65
2021/05/10 03:03:51;;;;;;;2.80;1.57;;;;;;;;;;5025452;28;21029;-64
2021/05/10 03:06:17;;;;;;;3.50;1.53;;;;;;;;;;5014483;28;20406;-64
2021/05/10 03:08:43;;;;;;;6.43;1.83;;;;;;;;;;5021482;28;20788;-64
2021/05/10 03:11:09;;;;;;;2.70;1.73;;;;;;;;;;5034187;28;20775;-65
2021/05/10 03:13:35;;;;;;;2.33;1.37;;;;;;;;;;5027169;28;20823;-65
2021/05/10 03:16:01;;;;;;;3.20;1.50;;;;;;;;;;5014945;28;20402;-66
2021/05/10 03:18:27;;;;;;;3.03;2.00;;;;;;;;;;5018885;28;20434;-65
2021/05/10 03:20:53;;;;;;;2.10;1.23;;;;;;;;;;5033930;28;20418;-65
2021/05/10 03:23:19;;;;;;;4.30;1.70;;;;;;;;;;5030886;28;20459;-66
2021/05/10 03:25:45;;;;;;;3.50;1.70;;;;;;;;;;5034127;28;20419;-65
2021/05/10 03:28:11;;;;;;;3.27;1.60;;;;;;;;;;5033621;28;20489;-65
2021/05/10 03:30:37;;;;;;;3.97;1.77;;;;;;;;;;5031624;28;20442;-65
2021/05/10 03:33:03;;;;;;;6.23;3.23;;;;;;;;;;5033956;28;20406;-65
2021/05/10 03:35:29;;;;;;;4.57;1.43;;;;;;;;;;5032792;28;20435;-65
2021/05/10 03:37:55;;;;;;;3.50;2.03;;;;;;;;;;5033040;28;20403;-65
2021/05/10 03:40:21;;;;;;;3.90;1.80;;;;;;;;;;5032481;28;20450;-65
2021/05/10 03:42:48;;;;;;;5.73;1.63;;;;;;;;;;5033578;28;20470;-65
2021/05/10 03:45:15;;;;;;;2.63;1.40;;;;;;;;;;5032524;28;20433;-67
2021/05/10 03:47:41;;;;;;;4.40;1.83;;;;;;;;;;5033736;28;20395;-66
2021/05/10 03:50:10;;;;;;;5.83;1.50;;;;;;;;;;5031391;28;20443;-64
2021/05/10 03:52:37;;;;;;;2.60;1.40;;;;;;;;;;5033401;28;20398;-65
2021/05/10 03:55:03;;;;;;;4.97;1.53;;;;;;;;;;5032128;28;20438;-65
2021/05/10 03:57:29;;;;;;;5.30;1.60;;;;;;;;;;5033627;28;20403;-65
2021/05/10 03:59:55;;;;;;;2.57;1.90;;;;;;;;;;5032235;28;20419;-65
2021/05/10 04:02:22;;;;;;;4.27;1.70;;;;;;;;;;5033242;28;20478;-65
2021/05/10 04:04:58;;;;;;;4.73;2.17;;;;;;;;;;5032347;28;20435;-66
2021/05/10 04:07:41;;;;;;;3.70;1.90;;;;;;;;;;5033219;28;20426;-65
2021/05/10 04:15:31;;;;;;;9.27;2.10;;;;;;;;;;5016015;28;20469;-65
2021/05/10 04:17:57;;;;;;;4.47;2.17;;;;;;;;;;5013631;28;20387;-65
2021/05/10 04:20:23;;;;;;;6.70;1.83;;;;;;;;;;5025192;28;20548;-65
2021/05/10 04:22:49;;;;;;;2.90;1.73;;;;;;;;;;5032940;28;20564;-66
2021/05/10 04:25:15;;;;;;;3.30;1.60;;;;;;;;;;5031956;28;20507;-65
2021/05/10 04:27:41;;;;;;;3.60;2.40;;;;;;;;;;5031016;28;20460;-65
2021/05/10 04:30:07;;;;;;;11.60;2.27;;;;;;;;;;5022911;28;20526;-64
2021/05/10 04:32:33;;;;;;;11.40;4.10;;;;;;;;;;5013235;28;20431;-65
2021/05/10 04:34:59;;;;;;;4.80;2.53;;;;;;;;;;5025252;28;20426;-64
2021/05/10 04:37:26;;;;;;;2.57;1.63;;;;;;;;;;5032897;28;20404;-64
2021/05/10 04:39:52;;;;;;;5.37;2.40;;;;;;;;;;5025549;28;20791;-65
2021/05/10 04:42:18;;;;;;;2.77;1.63;;;;;;;;;;5013367;28;20473;-65
2021/05/10 04:44:44;;;;;;;5.43;1.70;;;;;;;;;;5018137;28;20419;-65
2021/05/10 04:47:10;;;;;;;4.63;1.87;;;;;;;;;;5033319;28;20502;-65
2021/05/10 04:49:36;;;;;;;5.10;2.00;;;;;;;;;;5031966;28;20500;-65
2021/05/10 04:52:02;;;;;;;7.30;2.00;;;;;;;;;;5036287;28;20488;-64
2021/05/10 04:54:28;;;;;;;3.37;2.03;;;;;;;;;;5036053;28;20426;-65
2021/05/10 04:56:54;;;;;;;4.17;2.00;;;;;;;;;;5037073;28;20750;-65
2021/05/10 04:59:21;;;;;;;5.73;2.57;;;;;;;;;;5034727;28;20809;-65
2021/05/10 05:01:47;;;;;;;4.20;2.20;;;;;;;;;;5016848;28;20423;-65
2021/05/10 05:04:13;;;;;;;4.17;1.90;;;;;;;;;;5016651;28;20522;-65
2021/05/10 05:06:39;;;;;;;2.50;1.60;;;;;;;;;;5035026;28;20415;-65
2021/05/10 05:09:05;;;;;;;3.63;1.93;;;;;;;;;;5036555;28;20398;-64
2021/05/10 05:11:31;;;;;;;3.80;1.87;;;;;;;;;;5034791;28;20604;-65
2021/05/10 05:13:58;;;;;;;6.43;2.10;;;;;;;;;;5036384;28;20464;-64
2021/05/10 05:16:24;;;;;;;5.10;1.93;;;;;;;;;;5022716;28;20459;-65
2021/05/10 05:18:50;;;;;;;2.93;1.50;;;;;;;;;;5016880;28;20407;-64
2021/05/10 05:21:16;;;;;;;5.60;2.83;;;;;;;;;;5028080;28;20450;-64
2021/05/10 05:23:42;;;;;;;3.60;2.07;;;;;;;;;;5036333;28;20893;-64
2021/05/10 05:26:08;;;;;;;6.23;2.83;;;;;;;;;;5035765;28;20799;-64
2021/05/10 05:28:34;;;;;;;4.07;2.07;;;;;;;;;;5036692;28;20801;-65
2021/05/10 05:31:02;;;;;;;3.73;2.57;;;;;;;;;;5035168;28;20446;-65
2021/05/10 05:33:28;;;;;;;6.03;2.70;;;;;;;;;;5037115;28;20418;-65
2021/05/10 05:35:54;;;;;;;2.67;1.90;;;;;;;;;;5028096;28;20435;-64
2021/05/10 05:38:20;;;;;;;2.50;1.63;;;;;;;;;;5017034;28;20412;-65
2021/05/10 05:40:47;;;;;;;6.67;1.80;;;;;;;;;;5023181;28;20538;-65
2021/05/10 05:43:13;;;;;;;4.97;1.87;;;;;;;;;;5028177;28;20554;-65
2021/05/10 05:45:40;;;;;;;4.67;2.80;;;;;;;;;;5016149;28;20426;-65
2021/05/10 05:48:07;;;;;;;5.70;1.93;;;;;;;;;;5016706;28;20422;-66
2021/05/10 05:50:33;;;;;;;4.67;1.67;;;;;;;;;;5016146;28;20554;-66
2021/05/10 05:53:00;;;;;;;3.83;1.87;;;;;;;;;;5022805;28;20435;-66
2021/05/10 05:55:26;;;;;;;4.47;1.90;;;;;;;;;;5034763;28;20897;-66
2021/05/10 05:57:52;;;;;;;4.80;1.67;;;;;;;;;;5035543;28;20887;-65
2021/05/10 06:00:18;;;;;;;3.00;1.43;;;;;;;;;;5033003;28;21158;-66
2021/05/10 06:02:45;;;;;;;4.70;1.67;;;;;;;;;;5014845;28;20561;-66
2021/05/10 06:05:11;;;;;;;3.77;1.87;;;;;;;;;;5014986;28;20478;-66
2021/05/10 06:07:41;;;;;;;8.10;2.03;;;;;;;;;;5035463;28;20403;-65
2021/05/10 06:10:08;;;;;;;3.10;1.67;;;;;;;;;;5034341;28;20455;-66
2021/05/10 06:12:34;;;;;;;3.00;1.43;;;;;;;;;;5015692;28;20792;-66
2021/05/10 06:15:00;;;;;;;9.73;1.93;;;;;;;;;;5015569;28;20470;-65
2021/05/10 06:17:26;;;;;;;3.80;1.70;;;;;;;;;;5018986;28;20426;-65
2021/05/10 06:19:53;;;;;;;6.23;1.87;;;;;;;;;;5013899;28;20420;-66
2021/05/10 06:22:19;;;;;;;2.50;1.33;;;;;;;;;;5032790;28;20784;-65
2021/05/10 06:24:45;;;;;;;2.40;1.57;;;;;;;;;;5034965;28;20454;-65
2021/05/10 06:27:11;;;;;;;2.80;1.47;;;;;;;;;;5034125;28;20422;-65
2021/05/10 06:29:37;;;;;;;2.57;1.50;;;;;;;;;;5035073;28;20452;-65
2021/05/10 06:32:04;;;;;;;4.33;1.67;;;;;;;;;;5033806;28;20814;-65
2021/05/10 06:34:30;;;;;;;2.57;1.30;;;;;;;;;;5035092;28;20403;-65
2021/05/10 06:36:56;;;;;;;3.63;1.60;;;;;;;;;;5033635;28;20911;-65
2021/05/10 06:39:22;;;;;;;3.10;1.57;;;;;;;;;;5031563;28;20997;-65
2021/05/10 06:41:48;;;;;;;2.10;1.47;;;;;;;;;;5026833;28;20880;-65
2021/05/10 06:44:14;;;;;;;4.17;1.53;;;;;;;;;;5034335;28;20450;-65
2021/05/10 06:46:40;;;;;;;3.00;1.40;;;;;;;;;;5030182;28;20431;-66
2021/05/10 06:49:06;;;;;;;4.13;1.60;;;;;;;;;;5032190;28;20438;-65
2021/05/10 06:51:33;;;;;;;3.70;1.50;;;;;;;;;;5033397;28;20446;-65
2021/05/10 06:53:59;;;;;;;4.73;1.60;;;;;;;;;;5031957;28;20430;-65
2021/05/10 06:56:25;;;;;;;2.07;1.10;;;;;;;;;;5027569;28;20463;-64
2021/05/10 06:58:51;;;;;;;4.60;1.43;;;;;;;;;;5034356;28;20902;-66
2021/05/10 07:01:17;;;;;;;3.67;1.57;;;;;;;;;;5031682;28;20496;-66
2021/05/10 07:03:43;;;;;;;5.87;2.37;;;;;;;;;;5033561;28;20458;-65
2021/05/10 07:06:09;;;;;;;8.70;1.83;;;;;;;;;;5032770;28;20869;-65
2021/05/10 07:08:35;;;;;;;3.13;1.57;;;;;;;;;;5034162;28;20426;-65
2021/05/10 07:11:01;;;;;;;2.47;1.40;;;;;;;;;;5031042;28;20450;-65
2021/05/10 07:13:27;;;;;;;5.40;1.90;;;;;;;;;;5030436;28;20426;-65
2021/05/10 07:15:53;;;;;;;2.20;1.50;;;;;;;;;;5027926;28;20431;-65
2021/05/10 07:18:20;;;;;;;8.33;1.80;;;;;;;;;;5023716;28;20912;-70
2021/05/10 07:20:46;;;;;;;7.00;1.60;;;;;;;;;;5026889;28;20460;-69
2021/05/10 07:23:13;;;;;;;3.38;1.52;;;;;;;;;;5020659;28;20441;-67
2021/05/10 07:25:41;;;;;;;3.70;1.50;;;;;;;;;;5026143;28;20277;-68
2021/05/10 07:28:08;;;;;;;5.83;1.90;;;;;;;;;;5033304;28;20422;-69
2021/05/10 07:30:34;;;;;;;5.35;1.75;;;;;;;;;;5029453;28;20818;-68
2021/05/10 07:33:00;;;;;;;6.10;1.50;;;;;;;;;;5031237;28;20204;-71
2021/05/10 07:35:26;;;;;;;2.93;1.57;;;;;;;;;;5026424;28;20525;-67
2021/05/10 07:37:52;;;;;;;3.97;1.60;;;;;;;;;;5029590;28;20461;-68
2021/05/10 07:40:21;;;;;;;3.03;1.47;;;;;;;;;;5033837;28;20191;-65
2021/05/10 07:42:47;;;;;;;3.40;1.70;;;;;;;;;;5028221;28;20811;-65
2021/05/10 07:45:14;;;;;;;6.10;1.60;;;;;;;;;;5031615;28;20409;-66
2021/05/10 07:47:40;;;;;;;4.50;3.00;;;;;;;;;;5030405;28;20429;-65
2021/05/10 07:50:06;;;;;;;5.60;1.50;;;;;;;;;;5029795;28;20411;-66
2021/05/10 07:52:33;;;;;;;3.47;1.50;;;;;;;;;;5030301;28;20857;-65
2021/05/10 07:55:01;;;;;;;4.30;1.60;;;;;;;;;;5019730;28;20515;-64
2021/05/10 07:57:27;;;;;;;3.43;1.50;;;;;;;;;;5030846;28;20175;-65
2021/05/10 07:59:54;;;;;;;4.57;1.40;;;;;;;;;;5027119;28;20454;-64
2021/05/10 08:02:23;;;;;;;3.30;1.67;;;;;;;;;;5029679;28;20979;-67
2021/05/10 08:04:49;;;;;;;4.77;1.50;;;;;;;;;;5028532;28;20531;-66
2021/05/10 08:07:16;;;;;;;3.07;1.43;;;;;;;;;;5029605;28;20426;-66
2021/05/10 08:09:42;;;;;;;3.03;1.37;;;;;;;;;;5031015;28;20446;-66
2021/05/10 08:12:08;;;;;;;3.43;1.30;;;;;;;;;;5019971;28;20911;-69
2021/05/10 08:14:35;;;;;;;2.13;1.20;;;;;;;;;;5029021;28;20415;-66
2021/05/10 08:17:02;;;;;;;8.37;1.53;;;;;;;;;;5030400;28;20426;-65
2021/05/10 08:19:28;;;;;;;2.40;1.30;;;;;;;;;;5030931;28;20416;-64
2021/05/10 08:21:54;;;;;;;5.03;1.10;;;;;;;;;;5029431;28;20219;-66
2021/05/10 08:24:20;;;;;;;2.80;1.30;;;;;;;;;;5029577;28;21003;-71
2021/05/10 08:26:46;;;;;;;3.03;1.37;;;;;;;;;;5030102;28;20920;-68
2021/05/10 08:29:13;;;;;;;2.80;1.30;;;;;;;;;;5030427;28;20842;-67
2021/05/10 08:31:39;;;;;;;4.90;1.43;;;;;;;;;;5029444;28;20252;-69
2021/05/10 08:34:06;;;;;;;2.33;1.10;;;;;;;;;;5026879;28;20415;-70
2021/05/10 08:36:32;;;;;;;4.60;1.30;;;;;;;;;;5027755;28;20410;-72
2021/05/10 08:38:58;;;;;;;3.67;1.52;;;;;;;;;;5029533;28;20459;-69
2021/05/10 08:41:24;;;;;;;3.50;1.60;;;;;;;;;;5029974;28;20211;-69
2021/05/10 08:43:50;;;;;;;3.20;1.60;;;;;;;;;;5027224;28;20429;-68
2021/05/10 08:46:16;;;;;;;2.90;1.53;;;;;;;;;;5028945;28;20518;-68
2021/05/10 08:48:42;;;;;;;3.97;1.33;;;;;;;;;;5028657;28;20437;-65
2021/05/10 08:51:08;;;;;;;5.00;1.60;;;;;;;;;;5025101;28;20490;-66
2021/05/10 08:53:35;;;;;;;4.07;1.10;;;;;;;;;;5029417;28;20445;-67
2021/05/10 08:56:01;;;;;;;5.20;1.20;;;;;;;;;;5029755;28;21230;-69
2021/05/10 08:58:28;;;;;;;5.70;1.67;;;;;;;;;;5029927;28;20423;-70
2021/05/10 09:00:55;;;;;;;3.70;1.50;;;;;;;;;;5030094;28;20504;-72
2021/05/10 09:03:21;;;;;;;7.80;1.77;;;;;;;;;;5028523;28;20200;-70
2021/05/10 09:05:48;;;;;;;6.73;1.70;;;;;;;;;;5028665;28;20445;-69
2021/05/10 09:08:14;;;;;;;3.00;1.67;;;;;;;;;;5026749;28;20434;-68
2021/05/10 09:10:41;;;;;;;6.50;1.53;;;;;;;;;;5029769;28;20438;-67
2021/05/10 09:13:07;;;;;;;3.27;1.30;;;;;;;;;;5030394;28;20430;-67
2021/05/10 09:15:34;;;;;;;2.00;1.07;;;;;;;;;;5028163;28;20443;-68
2021/05/10 09:18:04;;;;;;;3.60;1.53;;;;;;;;;;5029707;28;20445;-68
2021/05/10 09:20:35;;;;;;;4.80;1.60;;;;;;;;;;5025784;28;20443;-68
2021/05/10 09:23:02;;;;;;;6.57;2.20;;;;;;;;;;5027560;28;20489;-70
2021/05/10 09:25:33;;;;;;;3.83;1.20;;;;;;;;;;5030047;28;20453;-67
2021/05/10 09:28:15;;;;;;;4.70;1.73;;;;;;;;;;5022357;28;20484;-67
2021/05/10 09:30:43;;;;;;;3.50;1.40;;;;;;;;;;5028108;28;20441;-67
2021/05/10 09:33:25;;;;;;;2.93;1.57;;;;;;;;;;5024336;28;20435;-67
2021/05/10 09:35:55;;;;;;;4.00;1.50;;;;;;;;;;5029334;28;20422;-67
2021/05/10 09:38:31;;;;;;;6.47;1.57;;;;;;;;;;5030992;28;20521;-67
2021/05/10 09:40:59;;;;;;;2.70;1.00;;;;;;;;;;5033582;28;20470;-67
2021/05/10 09:43:31;;;;;;;2.87;1.27;;;;;;;;;;5029723;28;20491;-66
2021/05/10 09:45:59;;;;;;;4.17;1.97;;;;;;;;;;5033757;28;20403;-67
2021/05/10 09:48:30;;;;;;;4.73;1.33;;;;;;;;;;5032844;28;20418;-67
2021/05/10 09:50:57;;;;;;;4.83;1.73;;;;;;;;;;5034455;28;20527;-67
2021/05/10 09:53:32;;;;;;;5.20;1.73;;;;;;;;;;5031796;28;20735;-67
2021/05/10 09:55:58;;;;;;;4.23;1.60;;;;;;;;;;5034597;28;20414;-68
2021/05/10 09:58:25;;;;;;;2.60;1.20;;;;;;;;;;5025946;28;21036;-67
2021/05/10 10:00:58;;;;;;;3.00;1.30;;;;;;;;;;5030122;28;20990;-67
2021/05/10 10:03:28;;;;;;;3.10;1.37;;;;;;;;;;5028675;28;21002;-67
2021/05/10 10:05:56;;;;;;;1.80;1.00;;;;;;;;;;5032575;28;20920;-67
2021/05/10 10:08:23;;;;;;;2.00;1.10;;;;;;;;;;5032639;28;20482;-67
2021/05/10 10:10:49;;;;;;;2.47;1.40;;;;;;;;;;5029637;28;20439;-68
2021/05/10 10:13:15;;;;;;;4.00;1.20;;;;;;;;;;5027926;28;20935;-68
2021/05/10 10:15:42;;;;;;;4.03;1.47;;;;;;;;;;5033674;28;20858;-68
2021/05/10 10:18:10;;;;;;;2.53;1.40;;;;;;;;;;5031857;28;20427;-68
2021/05/10 10:20:37;;;;;;;3.00;1.33;;;;;;;;;;5033866;28;20940;-68
2021/05/10 10:23:04;;;;;;;3.83;1.40;;;;;;;;;;5031045;28;20956;-68
2021/05/10 10:25:30;;;;;;;5.43;1.30;;;;;;;;;;5033992;28;20423;-67
2021/05/10 10:27:57;;;;;;;3.77;1.43;;;;;;;;;;5031341;28;20415;-67
2021/05/10 10:30:24;;;;;;;3.50;1.30;;;;;;;;;;5020257;28;20450;-69
2021/05/10 10:32:51;;;;;;;2.53;1.20;;;;;;;;;;5032499;28;20423;-68
2021/05/10 10:35:18;;;;;;;4.20;1.30;;;;;;;;;;5029747;28;20437;-67
2021/05/10 10:37:45;;;;;;;4.33;1.40;;;;;;;;;;5032711;28;20518;-67
2021/05/10 10:40:20;;;;;;;3.00;1.03;;;;;;;;;;5031043;28;20512;-68
2021/05/10 10:42:46;;;;;;;3.70;1.10;;;;;;;;;;5031436;28;20462;-67
2021/05/10 10:45:12;;;;;;;3.90;2.00;;;;;;;;;;5032201;28;20469;-67
2021/05/10 10:47:44;;;;;;;5.67;1.20;;;;;;;;;;5029197;28;20999;-66
2021/05/10 10:50:13;;;;;;;6.00;1.33;;;;;;;;;;5027132;28;20457;-68
2021/05/10 10:52:59;;;;;;;4.20;1.50;;;;;;;;;;5031931;28;20475;-67
2021/05/10 10:55:27;;;;;;;3.00;1.50;;;;;;;;;;5016652;28;20422;-67
2021/05/10 10:57:53;;;;;;;3.30;1.60;;;;;;;;;;5031690;28;20434;-67
2021/05/10 11:00:20;;;;;;;2.70;1.40;;;;;;;;;;5030619;28;20919;-67
2021/05/10 11:02:47;;;;;;;2.90;1.50;;;;;;;;;;5029607;28;20545;-67
2021/05/10 11:05:18;;;;;;;4.03;1.40;;;;;;;;;;5031479;28;22029;-67
2021/05/10 11:07:48;;;;;;;4.50;1.60;;;;;;;;;;5028761;28;20428;-67
2021/05/10 11:10:34;;;;;;;5.30;1.50;;;;;;;;;;5022974;28;20466;-67
2021/05/10 11:13:00;;;;;;;2.00;1.03;;;;;;;;;;5028187;28;20414;-67
2021/05/10 11:15:35;;;;;;;3.60;1.20;;;;;;;;;;5027445;28;20469;-68
2021/05/10 11:18:02;;;;;;;5.53;1.63;;;;;;;;;;5032702;28;20525;-67
2021/05/10 11:20:38;;;;;;;4.23;1.20;;;;;;;;;;5027243;28;20576;-67
2021/05/10 11:23:22;;;;;;;3.80;1.70;;;;;;;;;;5032619;28;20468;-68
2021/05/10 11:25:48;;;;;;;3.33;1.73;;;;;;;;;;5030666;28;20438;-68
2021/05/10 11:28:32;;;;;;;3.30;1.47;;;;;;;;;;5032418;28;20494;-68
2021/05/10 11:31:05;;;;;;;4.53;1.30;;;;;;;;;;5028690;28;21119;-68
2021/05/10 11:33:50;;;;;;;5.50;1.30;;;;;;;;;;5031218;28;20428;-68
2021/05/10 11:36:25;;;;;;;6.40;1.10;;;;;;;;;;5031246;28;20489;-68
2021/05/10 11:39:05;;;;;;;5.77;1.40;;;;;;;;;;5032285;28;20453;-68
2021/05/10 11:41:32;;;;;;;10.40;1.70;;;;;;;;;;5022401;28;21040;-68
2021/05/10 11:44:00;;;;;;;3.33;1.33;;;;;;;;;;5030252;28;20467;-68
2021/05/10 11:46:40;;;;;;;2.70;1.20;;;;;;;;;;5027659;28;20453;-68
2021/05/10 11:49:07;;;;;;;4.43;1.43;;;;;;;;;;5031232;28;20426;-68
2021/05/10 11:51:38;;;;;;;6.40;1.60;;;;;;;;;;5031410;28;20442;-68
2021/05/10 11:54:08;;;;;;;6.33;1.33;;;;;;;;;;5030544;28;20465;-68
2021/05/10 11:56:43;;;;;;;3.10;1.53;;;;;;;;;;5027100;28;20434;-68
2021/05/10 12:02:02;;;;;;;3.40;1.10;;;;;;;;;;5023508;28;20533;-68
2021/05/10 12:04:29;;;;;;;5.20;1.30;;;;;;;;;;5031503;28;20466;-69
2021/05/10 12:06:56;;;;;;;3.90;1.37;;;;;;;;;;5023084;28;20508;-68
2021/05/10 12:09:31;;;;;;;2.37;1.17;;;;;;;;;;5026988;28;20419;-68
2021/05/10 12:11:58;;;;;;;3.60;1.10;;;;;;;;;;5026404;28;20442;-68
2021/05/10 12:14:24;;;;;;;9.27;1.73;;;;;;;;;;5029178;28;20423;-68
2021/05/10 12:17:04;;;;;;;4.50;1.33;;;;;;;;;;5024979;28;20514;-68
2021/05/10 12:19:48;;;;;;;3.20;1.27;;;;;;;;;;5030564;28;20435;-68
2021/05/10 12:22:15;;;;;;;4.90;2.00;;;;;;;;;;5030707;28;20415;-69
2021/05/10 12:25:00;;;;;;;5.70;1.30;;;;;;;;;;5031515;28;20947;-68
2021/05/10 12:27:27;;;;;;;2.83;1.10;;;;;;;;;;5022658;28;20949;-68
2021/05/10 12:29:54;;;;;;;4.93;1.90;;;;;;;;;;5031685;28;20406;-68
2021/05/10 12:32:20;;;;;;;4.77;1.43;;;;;;;;;;5026687;28;20427;-68
2021/05/10 12:34:46;;;;;;;11.30;1.33;;;;;;;;;;5031890;28;20442;-68
2021/05/10 12:37:12;;;;;;;3.23;1.40;;;;;;;;;;5029824;28;20418;-68
2021/05/10 12:39:38;;;;;;;4.83;1.57;;;;;;;;;;5029611;28;20423;-69
2021/05/10 12:42:14;;;;;;;2.40;1.23;;;;;;;;;;5028460;28;20451;-67
2021/05/10 12:44:41;;;;;;;5.43;1.50;;;;;;;;;;5023865;28;20461;-68
2021/05/10 12:47:07;;;;;;;4.03;2.10;;;;;;;;;;5029009;28;20566;-68
2021/05/10 12:49:33;;;;;;;3.17;1.20;;;;;;;;;;5031781;28;20788;-68
2021/05/10 12:51:59;;;;;;;4.47;1.20;;;;;;;;;;5023952;28;20454;-68
2021/05/10 12:54:25;;;;;;;5.83;2.10;;;;;;;;;;5031331;28;20462;-67
2021/05/10 12:56:52;;;;;;;3.90;1.50;;;;;;;;;;5027995;28;20434;-68
2021/05/10 12:59:18;;;;;;;4.80;2.30;;;;;;;;;;5029284;28;20422;-67
2021/05/10 13:01:46;;;;;;;3.50;1.23;;;;;;;;;;5028266;28;20462;-67
2021/05/10 13:04:15;;;;;;;4.10;1.10;;;;;;;;;;5028352;28;20497;-67
2021/05/10 13:06:43;;;;;;;4.80;1.27;;;;;;;;;;5028506;28;20925;-67
2021/05/10 13:09:24;;;;;;;5.40;1.70;;;;;;;;;;5028359;28;20451;-67
2021/05/10 13:11:55;;;;;;;3.77;1.33;;;;;;;;;;5031863;28;20442;-68
2021/05/10 13:14:26;;;;;;;4.40;1.30;;;;;;;;;;5029878;28;20449;-67
2021/05/10 13:17:07;;;;;;;6.83;1.67;;;;;;;;;;5033979;28;20462;-68
2021/05/10 13:33:23;;;;;;;3.30;1.13;;;;;;;;;;5034509;28;20411;-68
2021/05/10 13:38:15;;;;;;;3.83;1.40;;;;;;;;;;5032803;28;20927;-68
2021/05/10 13:40:42;;;;;;;4.40;1.27;;;;;;;;;;5024756;28;20943;-68
2021/05/10 13:43:32;;;;;;;6.07;1.40;;;;;;;;;;5032855;28;20458;-68
2021/05/10 13:45:59;;;;;;;19.73;2.77;;;;;;;;;;5031126;28;20481;-71
2021/05/10 13:48:25;;;;;;;2.80;1.30;;;;;;;;;;5031398;28;20458;-70
2021/05/10 13:50:51;;;;;;;7.03;1.60;;;;;;;;;;5030223;28;20978;-78
2021/05/10 13:53:17;;;;;;;8.40;1.80;;;;;;;;;;5033211;28;20504;-71
2021/05/10 13:55:43;;;;;;;6.53;1.50;;;;;;;;;;5033247;28;20413;-69
2021/05/10 13:58:09;;;;;;;8.43;2.10;;;;;;;;;;5031175;28;20183;-73
2021/05/10 14:00:35;;;;;;;8.57;1.57;;;;;;;;;;5028043;28;20442;-71
2021/05/10 14:03:02;;;;;;;5.27;1.40;;;;;;;;;;5031932;28;20454;-71
2021/05/10 14:05:28;;;;;;;6.00;1.90;;;;;;;;;;5028380;28;20464;-68
2021/05/10 14:07:54;;;;;;;6.05;2.20;;;;;;;;;;5027149;28;20466;-73
2021/05/10 14:10:20;;;;;;;3.97;1.80;;;;;;;;;;5033487;28;20202;-76
2021/05/10 14:12:46;;;;;;;4.47;1.90;;;;;;;;;;5032787;28;20494;-74
2021/05/10 14:15:13;;;;;;;6.63;2.03;;;;;;;;;;5031662;28;21274;-73
2021/05/10 14:17:40;;;;;;;4.53;2.03;;;;;;;;;;5039030;28;20488;-71
2021/05/10 14:20:10;;;;;;;4.00;1.50;;;;;;;;;;5032336;28;20439;-71
2021/05/10 14:22:36;;;;;;;3.13;1.50;;;;;;;;;;5026357;28;20899;-70
2021/05/10 14:25:02;;;;;;;5.60;1.33;;;;;;;;;;5031955;28;20427;-70
2021/05/10 14:27:28;;;;;;;4.63;1.70;;;;;;;;;;5029975;28;20423;-70
2021/05/10 14:29:54;;;;;;;3.67;1.53;;;;;;;;;;5034114;28;20438;-68
2021/05/10 14:32:20;;;;;;;7.70;1.70;;;;;;;;;;5031174;28;20430;-68
2021/05/10 14:34:46;;;;;;;4.03;1.30;;;;;;;;;;5032797;28;20413;-67
2021/05/10 14:37:12;;;;;;;5.50;1.50;;;;;;;;;;5032485;28;20458;-68
2021/05/10 14:39:39;;;;;;;6.43;2.03;;;;;;;;;;5029039;28;20457;-68
2021/05/10 14:42:06;;;;;;;8.90;2.00;;;;;;;;;;5030585;28;20461;-68
2021/05/10 14:44:32;;;;;;;13.37;1.60;;;;;;;;;;5031149;28;20470;-68
2021/05/10 14:46:59;;;;;;;7.27;1.57;;;;;;;;;;5031940;28;20848;-69
2021/05/10 14:49:25;;;;;;;6.13;1.70;;;;;;;;;;5033803;28;20893;-68
2021/05/10 14:51:52;;;;;;;4.40;1.40;;;;;;;;;;5030193;28;20447;-69
2021/05/10 14:54:18;;;;;;;3.60;1.60;;;;;;;;;;5033921;28;20831;-68
2021/05/10 14:56:45;;;;;;;3.93;1.60;;;;;;;;;;5029891;28;20422;-68
2021/05/10 14:59:12;;;;;;;2.77;1.20;;;;;;;;;;5030932;28;20919;-67
2021/05/10 15:01:38;;;;;;;9.60;1.50;;;;;;;;;;5027697;28;20462;-69
2021/05/10 15:04:05;;;;;;;5.43;1.60;;;;;;;;;;5033013;28;20461;-68
2021/05/10 15:06:31;;;;;;;5.17;1.40;;;;;;;;;;5022693;28;20767;-68
2021/05/10 15:08:57;;;;;;;5.30;1.47;;;;;;;;;;5021506;28;20423;-69
2021/05/10 15:11:23;;;;;;;6.07;2.43;;;;;;;;;;5030849;28;20971;-70